Time;durP1;ratioP1;P1;durP2;ratioP2;P2;SDS_P1;SDS_P2;PMS_P1;PMS_P2;Temp;Humidity;BMP_temperature;BMP_pressure;BME280_temperature;BME280_humidity;BME280_pressure;Samples;Min_cycle;Max_cycle;Signal;HPM_P1;HPM_P2
2022/09/19 00:01:35;;;;;;;2.95;1.75;;;;;;;9.09;100.00;97745.59;4399640;32;20412;-68
2022/09/19 00:04:23;;;;;;;5.80;1.58;;;;;;;8.82;100.00;97745.09;4399622;32;20558;-68
2022/09/19 00:06:51;;;;;;;3.33;1.73;;;;;;;8.65;100.00;97735.44;4367342;32;20129;-68
2022/09/19 00:09:20;;;;;;;2.72;2.00;;;;;;;8.97;100.00;97785.34;4368509;32;20074;-68
2022/09/19 00:11:48;;;;;;;8.02;2.15;;;;;;;8.59;100.00;97747.22;4368836;32;20053;-68
2022/09/19 00:14:16;;;;;;;3.85;2.20;;;;;;;8.69;100.00;97757.97;4369419;32;20043;-72
2022/09/19 00:16:45;;;;;;;4.70;1.98;;;;;;;8.93;100.00;97784.25;4367113;32;20028;-69
2022/09/19 00:19:15;;;;;;;3.87;2.62;;;;;;;8.99;100.00;97783.19;4369024;32;20065;-68
2022/09/19 00:21:44;;;;;;;3.30;1.70;;;;;;;8.73;100.00;97744.84;4369282;32;20097;-68
2022/09/19 00:26:59;;;;;;;4.70;2.33;;;;;;;8.24;100.00;97740.72;4405021;32;20050;-69
2022/09/19 00:29:26;;;;;;;5.00;2.20;;;;;;;9.04;100.00;97793.91;4408425;32;20031;-70
2022/09/19 00:31:52;;;;;;;4.47;2.17;;;;;;;8.62;100.00;97744.03;4412039;32;20068;-72
2022/09/19 00:34:19;;;;;;;5.95;1.87;;;;;;;8.31;100.00;97735.94;4412665;32;20412;-69
2022/09/19 00:36:47;;;;;;;3.75;2.37;;;;;;;8.83;100.00;97784.28;4414915;32;20469;-69
2022/09/19 00:39:16;;;;;;;4.00;2.00;;;;;;;8.52;100.00;97741.31;4432163;32;20034;-69
2022/09/19 00:41:44;;;;;;;6.03;2.40;;;;;;;8.71;100.00;97750.47;4430201;32;20317;-68
2022/09/19 00:44:23;;;;;;;4.03;2.33;;;;;;;8.13;100.00;97646.06;4424976;32;20075;-70
2022/09/19 00:46:55;;;;;;;6.62;2.60;;;;;;;9.12;100.00;97781.03;4427297;32;20064;-69
2022/09/19 00:49:24;;;;;;;;;;;;;;;8.66;100.00;97785.34;4424558;32;20062;-69
2022/09/19 00:51:55;;;;;;;6.37;1.85;;;;;;;8.76;100.00;97783.72;4411997;32;19934;-71
2022/09/19 00:54:28;;;;;;;2.53;1.87;;;;;;;8.39;100.00;97733.78;4399343;32;20123;-68
2022/09/19 00:56:57;;;;;;;4.93;2.00;;;;;;;8.36;100.00;97733.25;4399077;32;20073;-68
2022/09/19 00:59:26;;;;;;;4.03;2.62;;;;;;;8.39;100.00;97774.00;4393019;32;20034;-68
2022/09/19 01:01:54;;;;;;;3.92;1.95;;;;;;;8.42;100.00;97790.37;4382051;32;20118;-68
2022/09/19 01:04:23;;;;;;;2.85;2.17;;;;;;;7.85;100.00;97737.69;4354958;32;20065;-68
2022/09/19 01:06:55;;;;;;;2.97;2.30;;;;;;;8.05;100.00;97801.28;4364724;32;20040;-68
2022/09/19 01:09:40;;;;;;;;;;;;;;;8.44;100.00;97793.66;4368535;32;20089;-70
2022/09/19 01:12:21;;;;;;;3.00;1.87;;;;;;;8.66;100.00;97779.16;4368465;32;19978;-68
2022/09/19 01:15:10;;;;;;;3.15;2.40;;;;;;;8.82;100.00;97766.56;4368664;32;20024;-68
2022/09/19 01:17:52;;;;;;;2.97;2.12;;;;;;;8.67;100.00;97789.63;4368748;32;20445;-68
2022/09/19 01:20:21;;;;;;;6.57;2.62;;;;;;;8.40;100.00;97746.91;4326109;33;20048;-68
2022/09/19 01:23:06;;;;;;;7.35;3.55;;;;;;;8.36;100.00;97749.34;4324029;33;20074;-69
2022/09/19 01:25:51;;;;;;;3.78;2.58;;;;;;;8.47;100.00;97793.13;4334788;32;20159;-69
2022/09/19 01:28:32;;;;;;;4.20;2.05;;;;;;;8.72;100.00;97792.31;4343511;32;20048;-69
2022/09/19 01:35:08;;;;;;;10.82;3.42;;;;;;;8.40;100.00;97791.72;4289167;33;20055;-70
2022/09/19 01:37:47;;;;;;;8.77;3.53;;;;;;;8.33;100.00;97787.41;4305735;33;20111;-69
2022/09/19 01:40:16;;;;;;;5.10;3.60;;;;;;;8.34;100.00;97786.34;4354991;32;20075;-69
2022/09/19 01:42:54;;;;;;;6.10;3.75;;;;;;;8.26;100.00;97792.22;4379708;32;20031;-69
2022/09/19 01:45:24;;;;;;;8.05;4.20;;;;;;;8.10;100.00;97793.25;4377842;32;20030;-68
2022/09/19 01:48:09;;;;;;;8.18;3.90;;;;;;;8.53;100.00;97792.03;4382142;32;20057;-68
2022/09/19 01:50:45;;;;;;;4.40;3.72;;;;;;;8.29;100.00;97754.13;4355656;32;20028;-69
2022/09/19 01:53:21;;;;;;;5.32;4.30;;;;;;;8.10;100.00;97804.78;4390336;32;20038;-69
2022/09/19 01:55:57;;;;;;;7.55;4.70;;;;;;;8.59;100.00;97806.25;4398293;32;20042;-69
2022/09/19 01:58:32;;;;;;;10.00;4.70;;;;;;;8.82;100.00;97804.13;4396671;32;20052;-69
2022/09/19 02:01:06;;;;;;;9.77;5.35;;;;;;;8.45;100.00;97740.78;4396445;32;20402;-69
2022/09/19 02:03:38;;;;;;;6.65;4.82;;;;;;;8.24;100.00;97799.72;4398066;32;20053;-70
2022/09/19 02:06:23;;;;;;;10.23;7.05;;;;;;;8.51;100.00;97809.47;4364321;32;20051;-72
2022/09/19 02:09:04;;;;;;;5.28;4.78;;;;;;;8.21;100.00;97757.34;4352937;32;20466;-68
2022/09/19 02:11:32;;;;;;;8.20;5.53;;;;;;;8.62;100.00;97762.00;4346896;33;20358;-71
2022/09/19 02:14:16;;;;;;;7.20;5.70;;;;;;;8.51;100.00;97799.53;4343806;33;20102;-70
2022/09/19 02:17:06;;;;;;;11.85;5.53;;;;;;;8.44;100.00;97757.94;4333743;33;20020;-69
2022/09/19 02:19:40;;;;;;;8.18;5.07;;;;;;;8.64;100.00;97798.22;4360510;32;20052;-69
2022/09/19 02:22:10;;;;;;;11.73;6.07;;;;;;;8.88;100.00;97795.00;4382027;32;20147;-69
2022/09/19 02:24:42;;;;;;;12.63;6.10;;;;;;;9.04;100.00;97804.66;4398317;32;20158;-69
2022/09/19 02:27:17;;;;;;;10.18;6.93;;;;;;;8.71;100.00;97761.19;4396224;32;20047;-69
2022/09/19 02:29:48;;;;;;;9.60;5.87;;;;;;;8.68;100.00;97761.72;4397958;32;20073;-69
2022/09/19 02:32:19;;;;;;;7.95;5.30;;;;;;;8.76;100.00;97757.72;4382498;32;20191;-69
2022/09/19 02:34:50;;;;;;;5.82;5.32;;;;;;;8.66;100.00;97773.78;4378503;32;20482;-70
2022/09/19 02:37:21;;;;;;;7.07;5.95;;;;;;;8.98;100.00;97805.72;4389358;32;20043;-69
2022/09/19 02:39:58;;;;;;;11.95;5.55;;;;;;;9.08;100.00;97805.75;4398375;32;20061;-69
2022/09/19 02:42:34;;;;;;;9.07;5.82;;;;;;;8.76;100.00;97802.50;4396149;32;20054;-69
2022/09/19 02:45:17;;;;;;;8.70;5.72;;;;;;;8.82;100.00;97766.56;4399085;32;20112;-69
2022/09/19 02:48:06;;;;;;;7.93;6.80;;;;;;;8.65;100.00;97770.31;4401151;32;20023;-72
2022/09/19 02:50:41;;;;;;;12.20;6.60;;;;;;;8.88;100.00;97808.44;4404036;32;20050;-69
2022/09/19 02:53:13;;;;;;;14.07;6.68;;;;;;;8.92;100.00;97820.25;4415861;32;20030;-69
2022/09/19 02:55:50;;;;;;;10.93;6.57;;;;;;;9.06;100.00;97809.75;4401081;32;20039;-69
2022/09/19 02:58:21;;;;;;;10.13;7.43;;;;;;;8.73;100.00;97748.31;4413115;32;20366;-69
2022/09/19 03:00:53;;;;;;;10.93;7.50;;;;;;;9.25;100.00;97805.47;4415171;32;20050;-69
2022/09/19 03:06:20;;;;;;;12.10;7.57;;;;;;;8.85;100.00;97830.44;4418170;32;20038;-70
2022/09/19 03:08:50;;;;;;;11.00;6.97;;;;;;;8.96;100.00;97782.94;4423244;32;20040;-73
2022/09/19 03:11:20;;;;;;;13.07;8.68;;;;;;;8.98;100.00;97818.34;4433051;32;20165;-68
2022/09/19 03:13:46;;;;;;;12.43;8.43;;;;;;;8.90;100.00;97827.75;4433005;32;20401;-68
2022/09/19 03:16:21;;;;;;;14.80;8.48;;;;;;;8.61;100.00;97776.47;4432894;32;20068;-68
2022/09/19 03:18:52;;;;;;;15.88;7.97;;;;;;;9.11;100.00;97830.44;4430680;32;20042;-72
2022/09/19 03:21:23;;;;;;;14.20;8.75;;;;;;;8.86;100.00;97786.44;4427969;32;20075;-68
2022/09/19 03:23:52;;;;;;;15.63;9.85;;;;;;;8.72;100.00;97735.97;4399250;32;20047;-68
2022/09/19 03:26:22;;;;;;;15.85;8.90;;;;;;;9.09;100.00;97838.75;4410372;32;20047;-68
2022/09/19 03:28:50;;;;;;;13.70;9.27;;;;;;;9.00;100.00;97821.56;4412024;32;20054;-68
2022/09/19 03:31:17;;;;;;;13.48;8.95;;;;;;;8.94;100.00;97834.22;4415283;32;20038;-69
2022/09/19 03:33:46;;;;;;;17.40;9.00;;;;;;;8.41;100.00;97794.16;4414461;32;20064;-68
2022/09/19 03:36:13;;;;;;;15.88;10.13;;;;;;;8.91;100.00;97832.06;4408137;32;20054;-68
2022/09/19 03:38:44;;;;;;;16.35;9.70;;;;;;;8.93;100.00;97848.69;4408662;32;20473;-70
2022/09/19 03:41:16;;;;;;;13.43;8.63;;;;;;;8.63;100.00;97799.31;4406848;32;20042;-68
2022/09/19 03:43:43;;;;;;;14.60;9.07;;;;;;;8.85;100.00;97833.91;4415676;32;20091;-70
2022/09/19 03:46:11;;;;;;;16.33;8.88;;;;;;;8.73;100.00;97828.03;4415147;32;20327;-68
2022/09/19 03:48:44;;;;;;;13.82;8.95;;;;;;;8.82;100.00;97853.28;4413138;32;20071;-71
2022/09/19 03:51:15;;;;;;;14.50;8.80;;;;;;;9.01;100.00;97850.03;4414099;32;20141;-68
2022/09/19 03:53:42;;;;;;;13.07;8.13;;;;;;;9.15;100.00;97866.44;4403614;32;20034;-68
2022/09/19 03:56:10;;;;;;;15.50;8.13;;;;;;;8.66;100.00;97790.72;4427526;32;20064;-68
2022/09/19 03:58:39;;;;;;;13.02;7.57;;;;;;;8.83;100.00;97864.81;4430598;32;20038;-71
2022/09/19 04:01:06;;;;;;;14.02;8.48;;;;;;;9.01;100.00;97861.56;4431421;32;20064;-68
2022/09/19 04:03:34;;;;;;;11.32;8.38;;;;;;;9.08;100.00;97862.13;4432400;32;20049;-68
2022/09/19 04:06:02;;;;;;;17.87;8.68;;;;;;;8.97;100.00;97860.53;4432313;32;20371;-68
2022/09/19 04:08:28;;;;;;;14.38;9.15;;;;;;;8.96;100.00;97858.09;4431110;32;20060;-71
2022/09/19 04:10:55;;;;;;;10.15;7.60;;;;;;;9.00;100.00;97865.34;4431269;32;20054;-69
2022/09/19 04:13:31;;;;;;;14.77;7.47;;;;;;;8.91;100.00;97845.47;4432527;32;20050;-67
2022/09/19 04:16:00;;;;;;;14.73;8.40;;;;;;;9.06;100.00;97869.66;4431770;32;20096;-68
2022/09/19 04:18:27;;;;;;;10.38;7.53;;;;;;;8.73;100.00;97861.03;4430174;32;20050;-69
2022/09/19 04:20:56;;;;;;;12.07;8.10;;;;;;;8.68;100.00;97869.06;4432439;32;20742;-68
2022/09/19 04:23:25;;;;;;;9.15;6.70;;;;;;;8.50;100.00;97823.94;4430415;32;20081;-69
2022/09/19 04:25:53;;;;;;;11.23;6.05;;;;;;;9.05;100.00;97868.03;4429265;32;20073;-68
2022/09/19 04:28:21;;;;;;;10.73;6.93;;;;;;;8.44;100.00;97830.38;4420144;32;20072;-69
2022/09/19 04:30:48;;;;;;;9.32;6.15;;;;;;;8.99;100.00;97869.09;4415261;32;20399;-69
2022/09/19 04:33:15;;;;;;;12.40;6.65;;;;;;;8.78;100.00;97867.50;4414187;32;20056;-69
2022/09/19 04:35:44;;;;;;;12.85;7.10;;;;;;;8.61;100.00;97820.22;4412961;32;20034;-69
2022/09/19 04:38:16;;;;;;;10.23;7.18;;;;;;;8.81;100.00;97818.66;4417792;32;20187;-72
2022/09/19 04:40:48;;;;;;;11.57;6.43;;;;;;;9.11;100.00;97876.09;4417407;32;20050;-70
2022/09/19 04:43:18;;;;;;;11.88;7.28;;;;;;;9.14;100.00;97880.94;4414730;32;20060;-69
2022/09/19 04:45:48;;;;;;;10.57;7.00;;;;;;;8.36;100.00;97770.78;4420280;32;20050;-70
2022/09/19 04:48:16;;;;;;;12.98;7.78;;;;;;;9.01;100.00;97885.75;4424334;32;20047;-70
2022/09/19 04:50:44;;;;;;;9.63;6.93;;;;;;;9.37;100.00;97875.00;4428644;32;20113;-70
2022/09/19 04:53:16;;;;;;;13.18;8.88;;;;;;;9.06;100.00;97875.03;4429674;32;20454;-69
2022/09/19 04:55:48;;;;;;;13.20;7.28;;;;;;;9.07;100.00;97871.25;4416533;32;20042;-70
2022/09/19 04:58:15;;;;;;;12.90;7.70;;;;;;;8.82;100.00;97879.28;4416394;32;20413;-70
2022/09/19 05:00:45;;;;;;;11.18;7.25;;;;;;;9.06;100.00;97890.31;4430311;32;21509;-70
2022/09/19 05:03:15;;;;;;;14.80;6.97;;;;;;;9.11;100.00;97884.13;4429080;32;20110;-69
2022/09/19 05:05:50;;;;;;;17.85;7.57;;;;;;;9.08;100.00;97893.56;4430893;32;20060;-69
2022/09/19 05:08:25;;;;;;;9.40;5.35;;;;;;;9.37;100.00;97895.72;4429586;32;20042;-71
2022/09/19 05:10:54;;;;;;;12.65;6.82;;;;;;;8.22;100.00;97812.59;4430170;32;20077;-69
2022/09/19 05:13:27;;;;;;;12.25;7.57;;;;;;;9.02;100.00;97898.09;4429161;32;20058;-69
2022/09/19 05:15:54;;;;;;;;;;;;;;;8.90;100.00;97854.59;4427391;32;20047;-72
2022/09/19 05:18:22;;;;;;;10.48;6.43;;;;;;;9.17;100.00;97902.66;4413852;32;19981;-70
2022/09/19 05:20:54;;;;;;;11.55;8.10;;;;;;;8.57;100.00;97845.16;4413900;32;20422;-70
2022/09/19 05:23:23;;;;;;;13.18;7.32;;;;;;;8.87;100.00;97898.91;4412648;32;20050;-69
2022/09/19 05:25:54;;;;;;;9.35;7.00;;;;;;;8.89;100.00;97855.69;4411000;32;20022;-70
2022/09/19 05:28:26;;;;;;;10.87;7.50;;;;;;;8.72;100.00;97885.44;4414156;32;20046;-70
2022/09/19 05:30:56;;;;;;;14.30;7.00;;;;;;;9.14;100.00;97907.78;4411774;32;20052;-70
2022/09/19 05:33:26;;;;;;;12.68;8.38;;;;;;;9.03;100.00;97886.31;4413168;32;20089;-73
2022/09/19 05:35:55;;;;;;;21.85;7.87;;;;;;;8.88;100.00;97854.06;4393255;32;20094;-70
2022/09/19 05:38:30;;;;;;;9.20;6.68;;;;;;;9.05;100.00;97868.03;4389158;32;20121;-69
2022/09/19 05:40:59;;;;;;;12.27;7.43;;;;;;;8.78;100.00;97835.28;4398491;32;20046;-70
2022/09/19 05:43:27;;;;;;;11.07;8.07;;;;;;;8.18;100.00;97774.78;4384218;32;20042;-72
2022/09/19 05:45:55;;;;;;;9.30;6.60;;;;;;;8.96;100.00;97834.72;4383114;32;20065;-73
2022/09/19 05:48:23;;;;;;;9.00;7.07;;;;;;;9.61;100.00;97910.19;4395086;32;20058;-72
2022/09/19 05:50:51;;;;;;;9.68;7.28;;;;;;;9.45;100.00;97903.22;4421210;32;20495;-72
2022/09/19 05:56:08;;;;;;;14.65;7.43;;;;;;;9.21;100.00;97914.50;4418564;32;20050;-72
2022/09/19 05:58:35;;;;;;;10.93;7.10;;;;;;;9.13;100.00;97890.06;4421855;32;20063;-71
2022/09/19 06:01:07;;;;;;;10.27;8.02;;;;;;;9.36;100.00;97931.69;4419947;32;20119;-72
2022/09/19 06:03:34;;;;;;;19.20;9.13;;;;;;;9.22;100.00;97926.03;4399229;32;20432;-72
2022/09/19 06:06:11;;;;;;;12.75;8.05;;;;;;;9.16;100.00;97890.34;4408585;32;20107;-73
2022/09/19 06:08:40;;;;;;;10.20;7.45;;;;;;;8.95;100.00;97892.22;4413645;32;20615;-72
2022/09/19 06:11:08;;;;;;;10.63;7.78;;;;;;;8.78;100.00;97889.75;4418270;32;20076;-75
2022/09/19 06:16:28;;;;;;;9.02;5.87;;;;;;;8.71;100.00;97879.28;4381120;32;20072;-72
2022/09/19 06:18:56;;;;;;;11.48;6.15;;;;;;;8.76;100.00;97916.06;4378361;32;20069;-72
2022/09/19 06:21:22;;;;;;;9.70;7.40;;;;;;;8.58;100.00;97906.59;4383822;32;20057;-73
2022/09/19 06:23:49;;;;;;;11.12;7.75;;;;;;;9.12;100.00;97958.28;4354792;32;20044;-71
2022/09/19 06:26:17;;;;;;;10.98;6.93;;;;;;;8.82;100.00;97957.13;4344173;32;20062;-71
2022/09/19 06:28:46;;;;;;;9.68;7.15;;;;;;;8.84;100.00;97928.13;4339912;33;20059;-73
2022/09/19 06:31:14;;;;;;;12.77;7.18;;;;;;;8.81;100.00;97920.63;4352548;32;20047;-70
2022/09/19 06:33:42;;;;;;;9.52;7.47;;;;;;;9.06;100.00;97969.00;4344534;32;20158;-71
2022/09/19 06:36:10;;;;;;;7.35;5.93;;;;;;;9.06;100.00;97963.63;4353491;32;20040;-72
2022/09/19 06:38:40;;;;;;;11.55;6.80;;;;;;;8.22;100.00;97930.59;4356263;32;20040;-70
2022/09/19 06:41:09;;;;;;;8.73;6.67;;;;;;;8.65;100.00;97936.69;4359813;32;20043;-71
2022/09/19 06:43:36;;;;;;;9.23;8.10;;;;;;;8.31;100.00;97902.22;4372238;32;20061;-74
2022/09/19 06:46:05;;;;;;;7.87;6.90;;;;;;;9.04;100.00;97978.38;4388750;32;20472;-72
2022/09/19 06:48:35;;;;;;;10.70;6.50;;;;;;;8.92;100.00;97981.31;4400281;32;20341;-74
2022/09/19 06:51:02;;;;;;;9.40;6.47;;;;;;;9.30;100.00;97981.13;4362643;32;20048;-73
2022/09/19 06:53:30;;;;;;;9.18;7.00;;;;;;;9.47;100.00;98002.38;4358368;32;20450;-72
2022/09/19 06:55:57;;;;;;;9.73;6.20;;;;;;;8.88;100.00;97951.50;4368540;32;20455;-70
2022/09/19 06:58:25;;;;;;;9.90;7.10;;;;;;;8.81;100.00;97953.66;4369288;32;20114;-71
2022/09/19 07:00:53;;;;;;;6.80;6.10;;;;;;;8.85;100.00;97976.19;4366194;32;20023;-71
2022/09/19 07:03:19;;;;;;;8.73;6.00;;;;;;;8.66;100.00;97962.47;4384656;32;20035;-71
2022/09/19 07:05:47;;;;;;;7.90;6.55;;;;;;;9.02;100.00;97959.84;4388246;32;20428;-72
2022/09/19 07:08:14;;;;;;;7.65;6.87;;;;;;;9.34;100.00;98004.50;4390172;32;20043;-72
2022/09/19 07:10:42;;;;;;;13.30;7.75;;;;;;;9.42;100.00;98012.03;4388857;32;20102;-73
2022/09/19 07:13:13;;;;;;;12.20;6.32;;;;;;;9.28;100.00;97970.62;4389944;32;20080;-73
2022/09/19 07:15:41;;;;;;;8.70;6.80;;;;;;;8.66;100.00;97898.06;4391689;32;20094;-72
2022/09/19 07:18:08;;;;;;;10.30;7.25;;;;;;;9.14;100.00;97988.34;4358218;32;20546;-71
2022/09/19 07:20:36;;;;;;;10.75;7.45;;;;;;;8.77;100.00;97903.44;4361924;32;20044;-71
2022/09/19 07:23:11;;;;;;;10.77;7.90;;;;;;;9.40;100.00;97997.25;4362552;32;20953;-71
2022/09/19 07:25:41;;;;;;;12.35;8.43;;;;;;;8.95;100.00;97905.63;4361398;32;20065;-73
2022/09/19 07:28:14;;;;;;;12.18;7.40;;;;;;;9.54;100.00;97989.47;4377640;32;20423;-72
2022/09/19 07:30:43;;;;;;;18.70;8.23;;;;;;;9.42;100.00;97970.94;4411383;32;20038;-73
2022/09/19 07:33:13;;;;;;;12.07;9.52;;;;;;;9.65;100.00;97985.69;4410461;32;20063;-71
2022/09/19 07:35:42;;;;;;;10.32;8.05;;;;;;;9.93;100.00;98029.25;4411462;32;20035;-71
2022/09/19 07:38:12;;;;;;;11.45;7.53;;;;;;;9.23;100.00;97981.37;4366111;32;20068;-71
2022/09/19 07:40:42;;;;;;;14.10;8.88;;;;;;;9.08;100.00;98034.00;4363393;32;20036;-71
2022/09/19 07:43:13;;;;;;;11.40;8.43;;;;;;;8.83;100.00;98001.69;4366338;32;20461;-71
2022/09/19 07:45:46;;;;;;;18.80;8.43;;;;;;;9.45;100.00;98043.75;4366265;32;20043;-71
2022/09/19 07:48:13;;;;;;;17.65;8.60;;;;;;;8.94;100.00;97940.78;4337091;33;20569;-76
2022/09/19 07:50:41;;;;;;;11.52;7.97;;;;;;;9.15;100.00;98003.41;4349588;32;20047;-72
2022/09/19 07:53:17;;;;;;;12.98;7.82;;;;;;;9.41;100.00;98055.28;4353311;32;20077;-69
2022/09/19 07:55:51;;;;;;;10.73;7.75;;;;;;;8.36;100.00;97945.13;4352391;32;20164;-71
2022/09/19 07:58:20;;;;;;;10.68;7.82;;;;;;;9.41;100.00;98042.66;4353553;32;20056;-71
2022/09/19 08:00:48;;;;;;;9.95;7.82;;;;;;;9.59;100.00;98046.72;4351307;32;21638;-70
2022/09/19 08:03:22;;;;;;;10.00;7.45;;;;;;;9.05;100.00;98013.03;4351279;32;20603;-73
2022/09/19 08:05:51;;;;;;;8.45;7.18;;;;;;;9.07;100.00;98013.56;4351069;32;20031;-73
2022/09/19 08:08:20;;;;;;;9.25;6.65;;;;;;;8.91;100.00;97960.91;4357742;32;20218;-73
2022/09/19 08:10:47;;;;;;;9.40;6.20;;;;;;;9.41;100.00;98069.53;4397067;32;20102;-71
2022/09/19 08:13:17;;;;;;;11.45;6.25;;;;;;;9.12;100.00;98017.34;4398489;32;20090;-72
2022/09/19 08:15:45;;;;;;;9.82;5.12;;;;;;;9.82;100.00;98058.81;4398289;32;20078;-72
2022/09/19 08:18:14;;;;;;;6.18;5.40;;;;;;;9.40;100.00;98024.94;4396478;32;20374;-72
2022/09/19 08:20:42;;;;;;;9.90;6.32;;;;;;;9.91;100.00;98061.00;4429259;32;20075;-71
2022/09/19 08:23:11;;;;;;;10.75;6.37;;;;;;;9.93;100.00;98070.38;4431033;32;20029;-72
2022/09/19 08:25:42;;;;;;;7.20;6.03;;;;;;;10.22;100.00;98071.72;4431131;32;20046;-71
2022/09/19 08:28:10;;;;;;;8.90;5.43;;;;;;;10.04;100.00;98071.22;4428900;32;20063;-75
2022/09/19 08:30:36;;;;;;;10.07;6.72;;;;;;;9.56;100.00;98070.63;4431261;32;20046;-72
2022/09/19 08:33:03;;;;;;;9.93;6.80;;;;;;;9.52;100.00;98081.09;4406200;32;20041;-72
2022/09/19 08:35:32;;;;;;;9.77;7.32;;;;;;;9.36;100.00;98029.22;4404565;32;20058;-72
2022/09/19 08:38:03;;;;;;;13.43;7.65;;;;;;;9.63;100.00;98033.53;4402996;32;20038;-72
2022/09/19 08:40:34;;;;;;;11.88;7.50;;;;;;;9.98;100.00;98083.03;4403684;32;20072;-72
2022/09/19 08:43:22;;;;;;;12.07;6.55;;;;;;;9.70;100.00;98085.19;4403873;32;20047;-72
2022/09/19 08:46:13;;;;;;;11.60;7.43;;;;;;;9.34;100.00;98047.47;4390057;32;20035;-76
2022/09/19 08:49:13;;;;;;;9.82;6.95;;;;;;;9.66;100.00;98096.72;4392181;32;20031;-73
2022/09/19 08:52:01;;;;;;;6.78;6.05;;;;;;;10.14;100.00;98070.38;4390304;32;20062;-72
2022/09/19 08:54:32;;;;;;;10.48;5.85;;;;;;;9.78;100.00;98090.03;4391505;32;20085;-72
2022/09/19 08:57:00;;;;;;;9.05;6.70;;;;;;;9.96;100.00;98095.94;4387245;32;20096;-75
2022/09/19 08:59:37;;;;;;;12.07;6.70;;;;;;;10.35;100.00;98087.34;4393739;32;20061;-72
2022/09/19 09:02:19;;;;;;;13.00;6.97;;;;;;;9.65;100.00;98047.50;4389520;32;20112;-70
2022/09/19 09:04:46;;;;;;;8.90;6.60;;;;;;;10.02;100.00;98081.44;4391919;32;20072;-70
2022/09/19 09:07:25;;;;;;;7.78;5.43;;;;;;;10.44;100.00;98083.03;4386778;32;20057;-72
2022/09/19 09:10:09;;;;;;;6.90;5.80;;;;;;;9.94;100.00;98103.44;4383614;32;20031;-70
2022/09/19 09:12:55;;;;;;;7.12;6.20;;;;;;;9.89;100.00;98087.31;4383475;32;20069;-70
2022/09/19 09:15:50;;;;;;;8.00;6.12;;;;;;;10.24;100.00;98088.41;4353384;32;20069;-71
2022/09/19 09:18:35;;;;;;;7.45;5.70;;;;;;;10.18;100.00;98082.22;4384840;32;20051;-71
2022/09/19 09:21:21;;;;;;;10.55;6.22;;;;;;;10.21;100.00;98091.62;4383441;32;20026;-71
2022/09/19 09:23:56;;;;;;;10.18;5.60;;;;;;;10.25;100.00;98006.63;4391401;32;20490;-72
2022/09/19 09:26:27;;;;;;;8.05;6.22;;;;;;;10.23;100.00;98102.91;4398409;32;20056;-72
2022/09/19 09:29:11;;;;;;;5.72;5.12;;;;;;;10.54;100.00;98092.97;4381308;32;20034;-71
2022/09/19 09:31:46;;;;;;;11.80;6.30;;;;;;;9.90;100.00;98048.63;4382870;32;20093;-70
2022/09/19 09:34:28;;;;;;;7.87;5.07;;;;;;;10.11;100.00;98050.19;4366425;32;20069;-72
2022/09/19 09:37:03;;;;;;;9.95;5.55;;;;;;;10.25;100.00;98031.62;4368476;32;20057;-72
2022/09/19 09:39:50;;;;;;;6.43;5.72;;;;;;;10.41;100.00;98070.13;4366549;32;20381;-71
2022/09/19 09:42:26;;;;;;;5.93;4.90;;;;;;;10.42;100.00;98120.19;4351934;32;20036;-72
2022/09/19 09:45:09;;;;;;;7.12;5.28;;;;;;;9.95;100.00;98067.44;4353579;32;20053;-72
2022/09/19 09:47:56;;;;;;;8.52;4.65;;;;;;;10.57;100.00;98067.41;4353150;32;20057;-76
2022/09/19 09:50:31;;;;;;;6.47;5.70;;;;;;;11.03;100.00;98118.44;4395950;32;20043;-70
2022/09/19 09:53:19;;;;;;;4.97;4.20;;;;;;;11.06;100.00;98117.87;4398444;32;20342;-71
2022/09/19 09:56:16;;;;;;;7.57;4.28;;;;;;;10.15;100.00;98132.00;4390692;32;20181;-70
2022/09/19 09:59:01;;;;;;;6.15;4.65;;;;;;;10.07;100.00;98129.00;4386318;32;20038;-70
2022/09/19 10:04:48;;;;;;;7.30;5.12;;;;;;;10.83;100.00;98125.50;4412824;32;20704;-70
2022/09/19 10:07:23;;;;;;;7.20;5.15;;;;;;;10.64;100.00;98127.13;4412729;32;20052;-70
2022/09/19 10:09:58;;;;;;;6.75;4.72;;;;;;;10.67;100.00;98088.91;4396695;32;20046;-70
2022/09/19 10:12:32;;;;;;;5.90;4.30;;;;;;;10.45;100.00;98092.72;4420792;32;20034;-69
2022/09/19 10:15:03;;;;;;;5.60;4.55;;;;;;;10.51;100.00;98102.41;4421572;32;20496;-69
2022/09/19 10:17:37;;;;;;;4.95;4.25;;;;;;;11.27;100.00;98135.56;4420452;32;20435;-73
2022/09/19 10:20:12;;;;;;;5.57;4.43;;;;;;;10.97;100.00;98106.06;4419500;32;20084;-69
2022/09/19 10:22:39;;;;;;;4.62;4.18;;;;;;;11.00;100.00;98100.12;4418248;32;20048;-69
2022/09/19 10:25:14;;;;;;;4.35;3.95;;;;;;;11.14;100.00;98121.91;4412486;32;20084;-73
2022/09/19 10:27:43;;;;;;;4.75;4.15;;;;;;;10.59;100.00;98146.00;4413213;32;20031;-70
2022/09/19 10:30:18;;;;;;;6.82;4.35;;;;;;;10.62;100.00;98123.91;4423478;32;20068;-70
2022/09/19 10:32:47;;;;;;;8.85;4.57;;;;;;;10.76;100.00;98162.66;4412528;32;20031;-69
2022/09/19 10:35:30;;;;;;;4.65;4.18;;;;;;;10.74;100.00;98143.28;4411356;32;20038;-70
2022/09/19 10:38:01;;;;;;;4.32;3.72;;;;;;;10.99;100.00;98144.28;4413334;32;20039;-71
2022/09/19 10:40:31;;;;;;;7.43;3.87;;;;;;;10.99;100.00;98144.28;4416384;32;20386;-72
2022/09/19 10:43:01;;;;;;;5.80;4.22;;;;;;;10.81;100.00;98159.94;4424568;32;20042;-73
2022/09/19 10:45:30;;;;;;;3.95;3.55;;;;;;;10.99;100.00;98149.66;4419857;32;20416;-70
2022/09/19 10:48:19;;;;;;;8.25;4.43;;;;;;;10.95;100.00;98127.06;4416536;32;20356;-71
2022/09/19 10:50:48;;;;;;;10.45;4.35;;;;;;;11.12;100.00;98105.19;4416417;32;20042;-73
2022/09/19 10:53:19;;;;;;;5.43;3.90;;;;;;;11.13;100.00;98101.41;4417680;32;20034;-71
2022/09/19 10:55:47;;;;;;;5.22;4.07;;;;;;;11.38;100.00;98136.34;4423638;32;20046;-70
2022/09/19 10:58:22;;;;;;;7.47;3.90;;;;;;;10.92;100.00;98106.06;4421546;32;20069;-70
2022/09/19 11:00:58;;;;;;;4.45;3.72;;;;;;;11.09;100.00;98144.28;4425002;32;20109;-70
2022/09/19 11:03:39;;;;;;;4.37;4.05;;;;;;;11.21;100.00;98155.53;4412782;32;20080;-71
2022/09/19 11:06:07;;;;;;;5.40;3.78;;;;;;;11.09;100.00;98149.66;4399801;32;20067;-75
2022/09/19 11:08:48;;;;;;;5.82;3.05;;;;;;;10.85;100.00;98152.94;4400028;32;20074;-70
2022/09/19 11:11:37;;;;;;;3.55;3.25;;;;;;;10.92;100.00;98149.97;4407119;32;20026;-72
2022/09/19 11:14:31;;;;;;;7.35;4.70;;;;;;;10.71;100.00;98112.31;4399404;32;20449;-71
2022/09/19 11:17:37;;;;;;;9.18;4.00;;;;;;;11.33;100.00;98149.00;4399169;32;20119;-68
2022/09/19 11:20:14;;;;;;;4.65;4.05;;;;;;;11.09;100.00;98144.28;4390208;32;20477;-71
2022/09/19 11:22:49;;;;;;;4.03;3.28;;;;;;;11.39;100.00;98158.69;4401784;32;20030;-72
2022/09/19 11:25:31;;;;;;;3.70;3.40;;;;;;;11.35;100.00;98106.44;4415436;32;20038;-71
2022/09/19 11:28:27;;;;;;;4.87;3.25;;;;;;;11.96;100.00;98138.44;4406734;32;20039;-72
2022/09/19 11:31:05;;;;;;;4.55;3.28;;;;;;;11.48;100.00;98129.28;4407433;32;20469;-68
2022/09/19 11:33:55;;;;;;;11.10;3.60;;;;;;;11.61;100.00;98134.06;4414426;32;20066;-71
2022/09/19 11:36:33;;;;;;;3.90;3.05;;;;;;;11.23;100.00;98129.12;4405552;32;20424;-69
2022/09/19 11:39:30;;;;;;;18.30;3.30;;;;;;;11.00;100.00;98113.59;4426942;32;20064;-71
2022/09/19 11:42:17;;;;;;;2.90;2.70;;;;;;;11.36;100.00;98110.72;4394781;32;20302;-70
2022/09/19 11:44:55;;;;;;;3.75;3.22;;;;;;;11.64;100.00;98149.69;4430393;32;20089;-69
2022/09/19 11:47:41;;;;;;;3.80;3.22;;;;;;;11.75;100.00;98151.22;4413844;32;20060;-69
2022/09/19 11:50:29;;;;;;;4.55;3.00;;;;;;;11.22;100.00;98116.72;4422773;32;20064;-73
2022/09/19 11:53:14;;;;;;;2.75;2.55;;;;;;;11.19;100.00;98116.47;4423417;32;20039;-71
2022/09/19 11:56:02;;;;;;;3.35;2.67;;;;;;;11.62;100.00;98155.34;4426445;32;20162;-72
2022/09/19 11:58:38;;;;;;;4.43;2.72;;;;;;;11.88;100.00;98157.91;4427719;32;20037;-70
2022/09/19 12:01:15;;;;;;;3.12;2.62;;;;;;;11.77;100.00;98116.69;4405148;32;20104;-70
2022/09/19 12:04:03;;;;;;;5.05;2.85;;;;;;;10.93;100.00;98135.44;4413900;32;20384;-70
2022/09/19 12:07:18;;;;;;;2.72;2.53;;;;;;;10.97;100.00;98168.00;4414259;32;20056;-70
2022/09/19 12:10:33;;;;;;;4.80;2.70;;;;;;;11.21;100.00;98169.00;4384879;32;20128;-70
2022/09/19 12:13:16;;;;;;;11.07;2.83;;;;;;;11.04;100.00;98168.50;4352880;32;20051;-71
2022/09/19 12:15:48;;;;;;;2.90;2.70;;;;;;;11.27;100.00;98159.81;4351268;32;20410;-70
2022/09/19 12:18:23;;;;;;;3.05;2.75;;;;;;;11.48;100.00;98167.03;4365289;32;20488;-72